sensor_id;sensor_type;location;lat;lon;timestamp;temperature;humidity
47434;SHT31;33184;48.774;8.918;2023-02-01T00:01:18;2.57;92.19
47434;SHT31;33184;48.774;8.918;2023-02-01T00:06:38;2.57;92.16
47434;SHT31;33184;48.774;8.918;2023-02-01T00:11:59;2.62;92.07
47434;SHT31;33184;48.774;8.918;2023-02-01T00:17:22;2.65;91.97
47434;SHT31;33184;48.774;8.918;2023-02-01T00:22:42;2.69;91.80
47434;SHT31;33184;48.774;8.918;2023-02-01T00:28:03;2.72;91.62
47434;SHT31;33184;48.774;8.918;2023-02-01T00:33:24;2.69;91.49
47434;SHT31;33184;48.774;8.918;2023-02-01T00:38:44;2.69;91.40
47434;SHT31;33184;48.774;8.918;2023-02-01T00:44:05;2.65;91.39
47434;SHT31;33184;48.774;8.918;2023-02-01T00:49:26;2.63;91.42
47434;SHT31;33184;48.774;8.918;2023-02-01T00:54:47;2.59;91.46
47434;SHT31;33184;48.774;8.918;2023-02-01T01:00:08;2.56;91.43
47434;SHT31;33184;48.774;8.918;2023-02-01T01:05:29;2.60;91.44
47434;SHT31;33184;48.774;8.918;2023-02-01T01:10:50;2.57;91.48
47434;SHT31;33184;48.774;8.918;2023-02-01T01:16:11;2.55;91.54
47434;SHT31;33184;48.774;8.918;2023-02-01T01:21:32;2.57;91.54
47434;SHT31;33184;48.774;8.918;2023-02-01T01:26:52;2.56;91.62
47434;SHT31;33184;48.774;8.918;2023-02-01T01:32:13;2.56;91.63
47434;SHT31;33184;48.774;8.918;2023-02-01T01:37:33;2.63;91.39
47434;SHT31;33184;48.774;8.918;2023-02-01T01:42:56;2.66;91.17
47434;SHT31;33184;48.774;8.918;2023-02-01T01:48:28;2.67;90.92
47434;SHT31;33184;48.774;8.918;2023-02-01T01:54:17;2.72;90.71
47434;SHT31;33184;48.774;8.918;2023-02-01T01:59:38;2.69;90.66
47434;SHT31;33184;48.774;8.918;2023-02-01T02:05:00;2.66;90.81
47434;SHT31;33184;48.774;8.918;2023-02-01T02:10:21;2.63;90.81
47434;SHT31;33184;48.774;8.918;2023-02-01T02:44:32;2.60;91.29
47434;SHT31;33184;48.774;8.918;2023-02-01T02:56:06;2.60;91.48
47434;SHT31;33184;48.774;8.918;2023-02-01T03:01:46;2.60;91.50
47434;SHT31;33184;48.774;8.918;2023-02-01T03:18:53;2.62;91.40
47434;SHT31;33184;48.774;8.918;2023-02-01T03:24:19;2.65;91.42
47434;SHT31;33184;48.774;8.918;2023-02-01T03:30:11;2.60;91.55
47434;SHT31;33184;48.774;8.918;2023-02-01T03:35:55;2.57;91.71
47434;SHT31;33184;48.774;8.918;2023-02-01T03:47:23;2.87;91.60
47434;SHT31;33184;48.774;8.918;2023-02-01T03:52:53;3.15;90.29
47434;SHT31;33184;48.774;8.918;2023-02-01T03:58:20;3.35;89.08
47434;SHT31;33184;48.774;8.918;2023-02-01T04:03:41;3.56;87.79
47434;SHT31;33184;48.774;8.918;2023-02-01T04:09:03;3.59;87.37
47434;SHT31;33184;48.774;8.918;2023-02-01T04:14:23;3.58;87.28
47434;SHT31;33184;48.774;8.918;2023-02-01T04:19:44;3.62;86.94
47434;SHT31;33184;48.774;8.918;2023-02-01T04:25:05;3.61;86.89
47434;SHT31;33184;48.774;8.918;2023-02-01T04:30:26;3.61;86.47
47434;SHT31;33184;48.774;8.918;2023-02-01T04:35:47;3.68;86.06
47434;SHT31;33184;48.774;8.918;2023-02-01T04:41:07;3.76;85.51
47434;SHT31;33184;48.774;8.918;2023-02-01T04:46:28;3.79;85.44
47434;SHT31;33184;48.774;8.918;2023-02-01T04:51:48;3.79;85.45
47434;SHT31;33184;48.774;8.918;2023-02-01T04:57:09;3.71;85.95
47434;SHT31;33184;48.774;8.918;2023-02-01T05:02:30;3.68;86.08
47434;SHT31;33184;48.774;8.918;2023-02-01T05:07:52;3.68;86.02
47434;SHT31;33184;48.774;8.918;2023-02-01T05:13:13;3.73;85.99
47434;SHT31;33184;48.774;8.918;2023-02-01T05:18:53;3.72;86.04
47434;SHT31;33184;48.774;8.918;2023-02-01T05:24:14;3.69;86.16
47434;SHT31;33184;48.774;8.918;2023-02-01T05:29:39;3.63;86.58
47434;SHT31;33184;48.774;8.918;2023-02-01T05:35:00;3.65;86.88
47434;SHT31;33184;48.774;8.918;2023-02-01T05:40:21;3.63;87.35
47434;SHT31;33184;48.774;8.918;2023-02-01T05:45:41;3.68;87.54
47434;SHT31;33184;48.774;8.918;2023-02-01T05:51:02;3.65;88.00
47434;SHT31;33184;48.774;8.918;2023-02-01T05:56:22;3.65;88.60
47434;SHT31;33184;48.774;8.918;2023-02-01T06:01:43;3.68;88.67
47434;SHT31;33184;48.774;8.918;2023-02-01T06:07:04;3.81;87.59
47434;SHT31;33184;48.774;8.918;2023-02-01T06:12:24;4.04;85.98
47434;SHT31;33184;48.774;8.918;2023-02-01T06:17:46;4.11;85.62
47434;SHT31;33184;48.774;8.918;2023-02-01T06:23:06;4.18;85.04
47434;SHT31;33184;48.774;8.918;2023-02-01T06:28:28;4.13;85.53
47434;SHT31;33184;48.774;8.918;2023-02-01T06:33:48;4.27;84.37
47434;SHT31;33184;48.774;8.918;2023-02-01T06:39:09;4.34;84.24
47434;SHT31;33184;48.774;8.918;2023-02-01T06:44:30;4.28;83.81
47434;SHT31;33184;48.774;8.918;2023-02-01T06:49:50;4.35;83.34
47434;SHT31;33184;48.774;8.918;2023-02-01T06:55:11;4.47;82.91
47434;SHT31;33184;48.774;8.918;2023-02-01T07:00:32;4.34;82.88
47434;SHT31;33184;48.774;8.918;2023-02-01T07:05:56;4.34;82.35
47434;SHT31;33184;48.774;8.918;2023-02-01T07:11:19;4.35;82.01
47434;SHT31;33184;48.774;8.918;2023-02-01T07:16:39;4.42;81.13
47434;SHT31;33184;48.774;8.918;2023-02-01T07:22:00;4.41;81.26
47434;SHT31;33184;48.774;8.918;2023-02-01T07:27:20;4.40;81.21
47434;SHT31;33184;48.774;8.918;2023-02-01T07:32:41;4.37;81.65
47434;SHT31;33184;48.774;8.918;2023-02-01T07:38:02;4.48;80.21
47434;SHT31;33184;48.774;8.918;2023-02-01T07:43:22;4.45;80.63
47434;SHT31;33184;48.774;8.918;2023-02-01T07:48:43;4.53;80.52
47434;SHT31;33184;48.774;8.918;2023-02-01T07:54:04;4.51;80.90
47434;SHT31;33184;48.774;8.918;2023-02-01T07:59:24;4.53;80.72
47434;SHT31;33184;48.774;8.918;2023-02-01T08:04:45;4.51;80.74
47434;SHT31;33184;48.774;8.918;2023-02-01T08:10:06;4.51;80.84
47434;SHT31;33184;48.774;8.918;2023-02-01T08:15:30;4.61;79.22
47434;SHT31;33184;48.774;8.918;2023-02-01T08:20:51;4.68;79.23
47434;SHT31;33184;48.774;8.918;2023-02-01T08:31:40;4.78;78.33
47434;SHT31;33184;48.774;8.918;2023-02-01T08:37:01;4.92;77.95
47434;SHT31;33184;48.774;8.918;2023-02-01T08:42:22;5.05;77.28
47434;SHT31;33184;48.774;8.918;2023-02-01T08:48:01;5.06;77.53
47434;SHT31;33184;48.774;8.918;2023-02-01T08:53:22;5.03;77.87
47434;SHT31;33184;48.774;8.918;2023-02-01T08:58:43;4.99;77.74
47434;SHT31;33184;48.774;8.918;2023-02-01T09:04:03;4.91;78.21
47434;SHT31;33184;48.774;8.918;2023-02-01T09:09:24;4.84;78.73
47434;SHT31;33184;48.774;8.918;2023-02-01T09:14:47;4.81;79.14
47434;SHT31;33184;48.774;8.918;2023-02-01T09:20:08;4.81;78.94
47434;SHT31;33184;48.774;8.918;2023-02-01T09:25:29;4.85;77.79
47434;SHT31;33184;48.774;8.918;2023-02-01T09:30:55;4.98;78.07
47434;SHT31;33184;48.774;8.918;2023-02-01T09:36:16;5.09;76.98
47434;SHT31;33184;48.774;8.918;2023-02-01T09:41:45;5.22;76.33
47434;SHT31;33184;48.774;8.918;2023-02-01T09:47:17;5.27;75.68
47434;SHT31;33184;48.774;8.918;2023-02-01T09:53:01;5.36;74.52
47434;SHT31;33184;48.774;8.918;2023-02-01T09:58:29;5.39;74.19
47434;SHT31;33184;48.774;8.918;2023-02-01T10:03:58;5.37;73.95
47434;SHT31;33184;48.774;8.918;2023-02-01T10:26:24;5.27;73.33
47434;SHT31;33184;48.774;8.918;2023-02-01T10:31:45;5.19;73.61
47434;SHT31;33184;48.774;8.918;2023-02-01T10:37:29;5.15;73.57
47434;SHT31;33184;48.774;8.918;2023-02-01T10:42:59;5.18;73.54
47434;SHT31;33184;48.774;8.918;2023-02-01T10:48:21;5.20;72.89
47434;SHT31;33184;48.774;8.918;2023-02-01T10:53:48;5.24;71.50
47434;SHT31;33184;48.774;8.918;2023-02-01T10:59:19;5.23;72.77
47434;SHT31;33184;48.774;8.918;2023-02-01T11:04:41;5.23;72.65
47434;SHT31;33184;48.774;8.918;2023-02-01T11:10:03;5.30;72.06
47434;SHT31;33184;48.774;8.918;2023-02-01T11:15:26;5.34;71.45
47434;SHT31;33184;48.774;8.918;2023-02-01T11:20:47;5.47;71.13
47434;SHT31;33184;48.774;8.918;2023-02-01T11:26:14;5.61;70.09
47434;SHT31;33184;48.774;8.918;2023-02-01T11:31:40;5.60;69.78
47434;SHT31;33184;48.774;8.918;2023-02-01T11:37:03;5.69;69.29
47434;SHT31;33184;48.774;8.918;2023-02-01T11:42:25;5.87;67.48
47434;SHT31;33184;48.774;8.918;2023-02-01T11:47:46;5.66;68.15
47434;SHT31;33184;48.774;8.918;2023-02-01T11:53:18;5.56;68.80
47434;SHT31;33184;48.774;8.918;2023-02-01T11:59:02;5.47;68.31
47434;SHT31;33184;48.774;8.918;2023-02-01T12:44:35;5.05;72.63
47434;SHT31;33184;48.774;8.918;2023-02-01T12:50:04;5.02;72.59
47434;SHT31;33184;48.774;8.918;2023-02-01T12:56:01;5.05;72.24
47434;SHT31;33184;48.774;8.918;2023-02-01T13:01:33;5.08;72.77
47434;SHT31;33184;48.774;8.918;2023-02-01T13:07:09;5.06;72.59
47434;SHT31;33184;48.774;8.918;2023-02-01T13:12:53;5.02;71.77
47434;SHT31;33184;48.774;8.918;2023-02-01T13:18:20;5.00;72.49
47434;SHT31;33184;48.774;8.918;2023-02-01T13:23:45;4.96;72.80
47434;SHT31;33184;48.774;8.918;2023-02-01T13:29:10;4.93;73.40
47434;SHT31;33184;48.774;8.918;2023-02-01T13:45:36;4.91;73.28
47434;SHT31;33184;48.774;8.918;2023-02-01T13:50:58;4.92;73.52
47434;SHT31;33184;48.774;8.918;2023-02-01T13:56:21;4.96;73.44
47434;SHT31;33184;48.774;8.918;2023-02-01T14:01:44;5.03;73.30
47434;SHT31;33184;48.774;8.918;2023-02-01T14:07:20;5.03;73.30
47434;SHT31;33184;48.774;8.918;2023-02-01T14:12:44;4.98;72.68
47434;SHT31;33184;48.774;8.918;2023-02-01T14:19:08;4.99;73.08
47434;SHT31;33184;48.774;8.918;2023-02-01T14:29:56;4.99;72.99
47434;SHT31;33184;48.774;8.918;2023-02-01T14:35:25;5.00;73.50
47434;SHT31;33184;48.774;8.918;2023-02-01T14:40:46;4.96;74.01
47434;SHT31;33184;48.774;8.918;2023-02-01T14:46:06;4.96;74.31
47434;SHT31;33184;48.774;8.918;2023-02-01T14:51:27;4.93;74.18
47434;SHT31;33184;48.774;8.918;2023-02-01T14:56:48;4.93;74.15
47434;SHT31;33184;48.774;8.918;2023-02-01T15:02:24;4.91;74.44
47434;SHT31;33184;48.774;8.918;2023-02-01T15:07:46;4.95;74.42
47434;SHT31;33184;48.774;8.918;2023-02-01T15:13:17;4.92;74.74
47434;SHT31;33184;48.774;8.918;2023-02-01T15:18:39;4.98;74.79
47434;SHT31;33184;48.774;8.918;2023-02-01T15:24:17;4.96;74.80
47434;SHT31;33184;48.774;8.918;2023-02-01T15:29:39;4.99;73.87
47434;SHT31;33184;48.774;8.918;2023-02-01T15:35:00;5.03;73.10
47434;SHT31;33184;48.774;8.918;2023-02-01T15:40:21;5.15;71.17
47434;SHT31;33184;48.774;8.918;2023-02-01T15:45:42;5.22;70.58
47434;SHT31;33184;48.774;8.918;2023-02-01T15:51:03;5.20;70.77
47434;SHT31;33184;48.774;8.918;2023-02-01T15:56:29;5.15;70.35
47434;SHT31;33184;48.774;8.918;2023-02-01T16:01:53;5.10;70.62
47434;SHT31;33184;48.774;8.918;2023-02-01T16:07:28;5.10;70.76
47434;SHT31;33184;48.774;8.918;2023-02-01T16:12:50;5.09;70.79
47434;SHT31;33184;48.774;8.918;2023-02-01T16:18:14;5.05;70.96
47434;SHT31;33184;48.774;8.918;2023-02-01T16:23:36;5.02;71.22
47434;SHT31;33184;48.774;8.918;2023-02-01T16:28:57;4.95;71.80
47434;SHT31;33184;48.774;8.918;2023-02-01T16:34:18;4.89;71.52
47434;SHT31;33184;48.774;8.918;2023-02-01T16:39:39;4.91;71.54
47434;SHT31;33184;48.774;8.918;2023-02-01T16:44:59;4.91;71.64
47434;SHT31;33184;48.774;8.918;2023-02-01T16:50:25;4.91;71.40
47434;SHT31;33184;48.774;8.918;2023-02-01T16:55:46;4.92;71.29
47434;SHT31;33184;48.774;8.918;2023-02-01T17:01:09;5.09;70.91
47434;SHT31;33184;48.774;8.918;2023-02-01T17:06:31;5.06;71.00
47434;SHT31;33184;48.774;8.918;2023-02-01T17:11:52;5.09;70.70
47434;SHT31;33184;48.774;8.918;2023-02-01T17:17:13;5.12;70.80
47434;SHT31;33184;48.774;8.918;2023-02-01T17:22:34;5.06;71.09
47434;SHT31;33184;48.774;8.918;2023-02-01T17:27:55;5.03;71.49
47434;SHT31;33184;48.774;8.918;2023-02-01T17:33:30;5.02;71.86
47434;SHT31;33184;48.774;8.918;2023-02-01T17:38:50;4.96;72.22
47434;SHT31;33184;48.774;8.918;2023-02-01T17:44:11;4.96;72.46
47434;SHT31;33184;48.774;8.918;2023-02-01T17:49:31;4.92;72.92
47434;SHT31;33184;48.774;8.918;2023-02-01T17:54:54;4.89;73.27
47434;SHT31;33184;48.774;8.918;2023-02-01T18:00:16;4.93;72.91
47434;SHT31;33184;48.774;8.918;2023-02-01T18:05:39;4.96;72.88
47434;SHT31;33184;48.774;8.918;2023-02-01T18:11:01;4.95;73.05
47434;SHT31;33184;48.774;8.918;2023-02-01T18:16:24;4.96;73.25
47434;SHT31;33184;48.774;8.918;2023-02-01T18:21:45;4.92;73.08
47434;SHT31;33184;48.774;8.918;2023-02-01T18:27:06;4.93;73.07
47434;SHT31;33184;48.774;8.918;2023-02-01T18:32:27;4.95;72.45
47434;SHT31;33184;48.774;8.918;2023-02-01T18:37:49;4.99;71.99
47434;SHT31;33184;48.774;8.918;2023-02-01T18:43:10;5.03;71.44
47434;SHT31;33184;48.774;8.918;2023-02-01T18:48:31;4.98;71.91
47434;SHT31;33184;48.774;8.918;2023-02-01T18:53:52;5.05;71.36
47434;SHT31;33184;48.774;8.918;2023-02-01T18:59:13;5.02;71.42
47434;SHT31;33184;48.774;8.918;2023-02-01T19:04:33;5.00;71.78
47434;SHT31;33184;48.774;8.918;2023-02-01T19:09:54;4.98;71.84
47434;SHT31;33184;48.774;8.918;2023-02-01T19:15:14;5.03;71.18
47434;SHT31;33184;48.774;8.918;2023-02-01T19:20:37;5.05;71.54
47434;SHT31;33184;48.774;8.918;2023-02-01T19:26:00;5.05;72.06
47434;SHT31;33184;48.774;8.918;2023-02-01T19:31:21;5.00;72.53
47434;SHT31;33184;48.774;8.918;2023-02-01T19:36:41;4.96;73.11
47434;SHT31;33184;48.774;8.918;2023-02-01T19:42:03;4.95;73.15
47434;SHT31;33184;48.774;8.918;2023-02-01T19:47:24;5.02;72.71
47434;SHT31;33184;48.774;8.918;2023-02-01T19:52:47;4.98;72.89
47434;SHT31;33184;48.774;8.918;2023-02-01T19:58:07;5.03;73.00
47434;SHT31;33184;48.774;8.918;2023-02-01T20:03:28;4.99;73.35
47434;SHT31;33184;48.774;8.918;2023-02-01T20:08:49;4.99;73.61
47434;SHT31;33184;48.774;8.918;2023-02-01T20:14:10;5.02;73.82
47434;SHT31;33184;48.774;8.918;2023-02-01T20:19:34;5.06;73.95
47434;SHT31;33184;48.774;8.918;2023-02-01T20:24:54;5.06;74.08
47434;SHT31;33184;48.774;8.918;2023-02-01T20:30:18;5.08;74.28
47434;SHT31;33184;48.774;8.918;2023-02-01T20:35:43;5.12;74.19
47434;SHT31;33184;48.774;8.918;2023-02-01T20:41:06;5.29;73.68
47434;SHT31;33184;48.774;8.918;2023-02-01T20:46:27;5.32;73.78
47434;SHT31;33184;48.774;8.918;2023-02-01T20:51:47;5.23;73.89
47434;SHT31;33184;48.774;8.918;2023-02-01T20:57:08;5.29;73.67
47434;SHT31;33184;48.774;8.918;2023-02-01T21:02:28;5.26;73.71
47434;SHT31;33184;48.774;8.918;2023-02-01T21:07:49;5.29;72.81
47434;SHT31;33184;48.774;8.918;2023-02-01T21:13:10;5.30;72.43
47434;SHT31;33184;48.774;8.918;2023-02-01T21:18:31;5.29;72.29
47434;SHT31;33184;48.774;8.918;2023-02-01T21:23:54;5.29;72.13
47434;SHT31;33184;48.774;8.918;2023-02-01T21:29:15;5.27;72.74
47434;SHT31;33184;48.774;8.918;2023-02-01T21:34:36;5.24;73.05
47434;SHT31;33184;48.774;8.918;2023-02-01T21:39:56;5.27;73.29
47434;SHT31;33184;48.774;8.918;2023-02-01T21:45:17;5.23;73.68
47434;SHT31;33184;48.774;8.918;2023-02-01T21:50:37;5.24;73.39
47434;SHT31;33184;48.774;8.918;2023-02-01T21:55:58;5.26;73.18
47434;SHT31;33184;48.774;8.918;2023-02-01T22:01:18;5.24;73.30
47434;SHT31;33184;48.774;8.918;2023-02-01T22:06:41;5.26;74.04
47434;SHT31;33184;48.774;8.918;2023-02-01T22:12:05;5.06;77.50
47434;SHT31;33184;48.774;8.918;2023-02-01T22:17:27;4.89;78.52
47434;SHT31;33184;48.774;8.918;2023-02-01T22:22:48;4.84;78.94
47434;SHT31;33184;48.774;8.918;2023-02-01T22:28:08;4.81;78.83
47434;SHT31;33184;48.774;8.918;2023-02-01T22:33:29;4.85;78.61
47434;SHT31;33184;48.774;8.918;2023-02-01T22:38:50;4.87;78.84
47434;SHT31;33184;48.774;8.918;2023-02-01T22:44:11;4.87;78.70
47434;SHT31;33184;48.774;8.918;2023-02-01T22:49:32;4.92;77.84
47434;SHT31;33184;48.774;8.918;2023-02-01T22:54:53;4.93;77.44
47434;SHT31;33184;48.774;8.918;2023-02-01T23:00:14;4.93;77.35
47434;SHT31;33184;48.774;8.918;2023-02-01T23:05:35;4.95;77.12
47434;SHT31;33184;48.774;8.918;2023-02-01T23:11:05;4.96;76.93
47434;SHT31;33184;48.774;8.918;2023-02-01T23:16:26;4.93;77.12
47434;SHT31;33184;48.774;8.918;2023-02-01T23:21:47;4.96;77.07
47434;SHT31;33184;48.774;8.918;2023-02-01T23:27:08;4.96;77.22
47434;SHT31;33184;48.774;8.918;2023-02-01T23:32:28;4.98;77.81
47434;SHT31;33184;48.774;8.918;2023-02-01T23:37:49;4.92;78.43
47434;SHT31;33184;48.774;8.918;2023-02-01T23:43:09;4.88;79.10
47434;SHT31;33184;48.774;8.918;2023-02-01T23:48:50;4.84;79.43
47434;SHT31;33184;48.774;8.918;2023-02-01T23:54:11;4.85;79.53
47434;SHT31;33184;48.774;8.918;2023-02-01T23:59:32;4.88;79.38
